Time;durP1;ratioP1;P1;durP2;ratioP2;P2;SDS_P1;SDS_P2;PMS_P1;PMS_P2;Temp;Humidity;BMP_temperature;BMP_pressure;BME280_temperature;BME280_humidity;BME280_pressure;Samples;Min_cycle;Max_cycle;Signal;HPM_P1;HPM_P2
2022/06/21 00:01:47;;;;;;;;;12.75;12.25;;;;;22.15;67.09;101067.81;5079644;28;45554;-79
2022/06/21 00:04:13;;;;;;;;;11.75;10.00;;;;;22.01;67.17;101044.06;5061463;28;45486;-78
2022/06/21 00:06:39;;;;;;;;;15.25;11.75;;;;;22.10;67.37;101071.34;5079780;28;45346;-79
2022/06/21 00:09:05;;;;;;;;;15.00;10.25;;;;;22.09;66.86;101074.84;5079021;27;45362;-80
2022/06/21 00:11:33;;;;;;;;;11.00;10.00;;;;;22.11;66.78;101059.00;5078850;27;45334;-79
2022/06/21 00:13:59;;;;;;;;;11.00;11.00;;;;;22.02;67.12;101040.56;5079246;27;45867;-79
2022/06/21 00:16:27;;;;;;;;;12.00;12.00;;;;;22.08;67.40;101046.72;5079882;28;45406;-76
2022/06/21 00:18:53;;;;;;;;;11.50;10.25;;;;;22.04;66.87;101036.16;5079385;28;45575;-78
2022/06/21 00:21:25;;;;;;;;;9.00;8.75;;;;;22.04;66.86;101042.31;5079886;27;45501;-76
2022/06/21 00:23:52;;;;;;;;;9.00;6.75;;;;;22.01;66.71;101034.41;5081023;28;45718;-79
2022/06/21 00:26:20;;;;;;;;;11.50;8.75;;;;;22.00;66.90;101029.13;5079628;28;45271;-86
2022/06/21 00:28:45;;;;;;;;;12.25;9.00;;;;;21.89;66.60;101005.41;5079128;28;45457;-80
2022/06/21 00:31:21;;;;;;;;;10.75;10.00;;;;;21.99;66.90;101035.25;5078616;27;45525;-77
2022/06/21 00:33:47;;;;;;;;;10.00;9.25;;;;;21.98;66.64;101039.66;5059680;28;45364;-78
2022/06/21 00:36:29;;;;;;;;;9.00;9.00;;;;;21.95;67.25;101037.03;5078876;28;45352;-77
2022/06/21 00:38:57;;;;;;;;;8.50;7.00;;;;;21.92;67.09;101037.03;5083985;27;45252;-78
2022/06/21 00:41:42;;;;;;;;;9.25;8.00;;;;;21.89;66.90;101031.75;5086681;27;45554;-77
2022/06/21 00:44:14;;;;;;;;;7.00;7.00;;;;;21.88;67.17;101040.53;5079510;28;45365;-77
2022/06/21 00:46:46;;;;;;;;;10.00;7.50;;;;;21.85;67.18;101051.06;5080119;27;45432;-77
2022/06/21 00:49:18;;;;;;;;;7.75;7.75;;;;;21.79;67.18;101042.28;5079811;28;45180;-78
2022/06/21 00:51:44;;;;;;;;;9.25;8.25;;;;;21.68;67.23;101011.50;5060141;28;46479;-79
2022/06/21 00:54:25;;;;;;;;;8.75;8.75;;;;;21.69;67.16;101015.91;5060869;28;45370;-76
2022/06/21 00:56:59;;;;;;;;;9.25;9.00;;;;;21.76;66.88;101029.09;5079184;28;45378;-84
2022/06/21 00:59:33;;;;;;;;;8.50;7.50;;;;;21.74;67.49;101030.84;5080056;28;45415;-81
2022/06/21 01:02:05;;;;;;;;;7.00;6.00;;;;;21.71;67.34;101028.19;5059837;28;47623;-81
2022/06/21 01:04:38;;;;;;;;;8.00;7.00;;;;;21.67;67.46;101041.34;5078061;28;45256;-83
2022/06/21 01:07:08;;;;;;;;;8.25;7.50;;;;;21.63;68.06;101049.28;5078885;28;45212;-85
2022/06/21 01:09:39;;;;;;;;;8.75;8.75;;;;;21.64;67.41;101055.41;5061477;28;45387;-82
2022/06/21 01:12:15;;;;;;;;;5.25;5.00;;;;;21.64;68.27;101052.78;5081677;28;46181;-86
2022/06/21 01:14:49;;;;;;;;;6.00;6.00;;;;;21.65;68.20;101042.22;5081463;28;45263;-86
2022/06/21 01:17:17;;;;;;;;;7.00;6.25;;;;;21.64;67.37;101056.31;5081835;27;45341;-83
2022/06/21 01:19:56;;;;;;;;;7.75;6.25;;;;;21.64;67.78;101058.03;5083608;28;45565;-82
2022/06/21 01:22:22;;;;;;;;;6.00;6.00;;;;;21.65;67.29;101044.00;5080651;28;45518;-84
2022/06/21 01:25:38;;;;;;;;;7.00;7.00;;;;;21.65;67.27;101058.03;5064717;28;45380;-83
2022/06/21 01:28:06;;;;;;;;;7.00;7.00;;;;;21.62;68.13;101044.88;5044165;28;45289;-81
2022/06/21 01:30:33;;;;;;;;;6.75;6.50;;;;;21.61;68.04;101051.03;5087659;27;45472;-80
2022/06/21 01:32:59;;;;;;;;;8.00;7.25;;;;;21.52;67.87;101034.25;5067198;28;46940;-83
2022/06/21 01:35:35;;;;;;;;;0.00;0.00;;;;;21.55;67.77;101042.19;5078729;28;45327;-86
2022/06/21 01:38:04;;;;;;;;;7.00;7.00;;;;;21.51;68.32;101049.19;5081731;28;45413;-88
2022/06/21 01:40:33;;;;;;;;;6.75;6.75;;;;;21.49;67.96;101050.94;5079654;28;45207;-89
2022/06/21 01:43:14;;;;;;;;;7.00;7.00;;;;;21.42;67.95;101052.69;5078515;27;46232;-88
2022/06/21 01:45:44;;;;;;;;;9.00;7.50;;;;;21.37;68.68;101043.00;5078557;28;45700;-87
2022/06/21 01:48:21;;;;;;;;;7.50;6.75;;;;;21.42;68.56;101051.81;5079133;28;45389;-87
2022/06/21 01:50:49;;;;;;;;;7.25;6.50;;;;;21.43;68.53;101066.75;5060519;28;45351;-87
2022/06/21 01:53:19;;;;;;;;;7.00;7.00;;;;;21.48;68.41;101075.53;5080397;28;45346;-85
2022/06/21 01:55:55;;;;;;;;;6.25;6.00;;;;;21.51;68.11;101086.09;5082221;28;45310;-87
2022/06/21 01:58:26;;;;;;;;;8.75;7.50;;;;;21.46;67.82;101083.44;5086648;28;45344;-87
2022/06/21 02:01:25;;;;;;;;;6.25;6.25;;;;;21.48;68.63;101121.22;5084910;28;45302;-77
2022/06/21 02:03:55;;;;;;;;;6.25;5.25;;;;;21.48;68.16;101125.56;5046777;28;46798;-79
2022/06/21 02:06:25;;;;;;;;;8.00;8.00;;;;;21.47;68.23;101137.88;5080073;28;45788;-80
2022/06/21 02:09:24;;;;;;;;;7.00;6.25;;;;;21.41;68.50;101140.47;5059356;28;45357;-83
2022/06/21 02:11:57;;;;;;;;;7.00;5.50;;;;;21.49;68.66;101151.91;5086397;28;45613;-81
2022/06/21 02:14:29;;;;;;;;;10.00;7.25;;;;;21.45;68.13;101137.00;5083897;27;45505;-80
2022/06/21 02:17:02;;;;;;;;;6.00;6.00;;;;;21.42;69.21;101144.00;5080263;27;45434;-82
2022/06/21 02:19:38;;;;;;;;;8.25;6.25;;;;;21.45;68.87;101146.63;5061094;28;45282;-79
2022/06/21 02:22:05;;;;;;;;;7.75;7.25;;;;;21.37;69.14;101122.91;5079582;27;45557;-78
2022/06/21 02:24:32;;;;;;;;;7.50;7.50;;;;;21.42;68.68;101129.06;5078832;28;46056;-79
2022/06/21 02:26:59;;;;;;;;;7.50;7.25;;;;;21.40;69.33;101115.00;5077801;28;45815;-78
2022/06/21 02:29:25;;;;;;;;;6.00;6.00;;;;;21.36;69.59;101100.06;5077507;28;45319;-78
2022/06/21 02:31:51;;;;;;;;;7.00;7.00;;;;;21.38;68.81;101093.03;5077595;28;45516;-77
2022/06/21 02:34:22;;;;;;;;;9.00;8.00;;;;;21.35;69.73;101082.50;5077421;27;45289;-80
2022/06/21 02:36:55;;;;;;;;;7.50;6.75;;;;;21.28;69.36;101063.16;5081141;28;45385;-80
2022/06/21 02:39:24;;;;;;;;;6.25;6.25;;;;;21.25;69.17;101049.09;5084157;28;45339;-85
2022/06/21 02:41:57;;;;;;;;;7.75;6.00;;;;;21.28;69.74;101041.19;5077570;28;45442;-79
2022/06/21 02:44:42;;;;;;;;;6.00;6.00;;;;;21.25;69.04;101036.81;5076857;28;45532;-83
2022/06/21 02:47:13;;;;;;;;;9.25;7.00;;;;;21.18;68.96;101019.22;5075407;28;45406;-79
2022/06/21 02:49:45;;;;;;;;;7.50;7.00;;;;;21.23;69.81;101032.41;5077489;28;45434;-80
2022/06/21 02:52:18;;;;;;;;;6.50;6.50;;;;;21.25;69.96;101031.53;5077187;28;45202;-78
2022/06/21 02:55:05;;;;;;;;;8.25;6.75;;;;;21.21;69.60;101035.06;5058383;28;46508;-78
2022/06/21 02:57:37;;;;;;;;;7.00;6.50;;;;;21.18;70.05;101021.88;5083892;28;45247;-84
2022/06/21 03:00:06;;;;;;;;;8.00;7.00;;;;;21.21;70.15;101026.25;5082846;28;45343;-82
2022/06/21 03:02:32;;;;;;;;;9.00;7.00;;;;;21.13;70.44;101010.41;5080047;28;45612;-79
2022/06/21 03:05:03;;;;;;;;;7.00;7.00;;;;;21.14;69.97;101015.72;5077575;28;46328;-79
2022/06/21 03:07:33;;;;;;;;;6.75;6.50;;;;;21.18;70.05;101013.97;5077074;27;45189;-84
2022/06/21 03:09:59;;;;;;;;;9.75;6.00;;;;;21.18;69.92;101022.72;5059567;28;46064;-79
2022/06/21 03:12:30;;;;;;;;;6.50;6.00;;;;;21.17;70.47;101017.47;5077796;27;45494;-83
2022/06/21 03:15:03;;;;;;;;;7.75;7.75;;;;;21.13;70.40;100999.88;5076734;28;45351;-81
2022/06/21 03:17:58;;;;;;;;;6.25;6.25;;;;;21.20;70.36;100996.44;5077191;28;45228;-80
2022/06/21 03:20:24;;;;;;;;;8.50;7.75;;;;;21.14;70.11;100976.22;5057936;28;45542;-77
2022/06/21 03:22:54;;;;;;;;;8.00;7.00;;;;;21.14;70.22;100975.31;5076393;28;45230;-79
2022/06/21 03:25:45;;;;;;;;;6.75;6.00;;;;;21.11;70.74;100964.81;5076093;27;45998;-78
2022/06/21 03:28:21;;;;;;;;;7.00;7.00;;;;;21.09;70.25;100966.53;5057559;28;45694;-80
2022/06/21 03:30:49;;;;;;;;;7.50;7.50;;;;;21.01;70.61;100951.56;5075748;28;45311;-79
2022/06/21 03:33:14;;;;;;;;;5.75;5.50;;;;;20.96;70.47;100941.91;5058115;28;45433;-81
2022/06/21 03:35:40;;;;;;;;;7.25;6.50;;;;;20.98;70.68;100941.06;5076203;28;45749;-79
2022/06/21 03:38:06;;;;;;;;;7.00;6.75;;;;;20.92;71.27;100925.22;5075620;28;45889;-78
2022/06/21 03:43:23;;;;;;;;;6.25;6.25;;;;;20.84;71.89;100908.53;5083604;27;45374;-79
2022/06/21 03:45:52;;;;;;;;;5.25;5.00;;;;;20.87;71.59;100898.03;5079491;28;45541;-79
2022/06/21 03:48:43;;;;;;;;;8.00;4.75;;;;;20.89;71.91;100893.66;5079217;28;45398;-78
2022/06/21 03:51:13;;;;;;;;;6.00;6.00;;;;;20.91;71.37;100888.38;5077310;28;45401;-85
2022/06/21 03:53:47;;;;;;;;;9.50;7.75;;;;;20.89;71.49;100880.50;5077258;28;45289;-85
2022/06/21 03:56:29;;;;;;;;;9.75;8.00;;;;;20.84;71.94;100867.28;5076893;28;46094;-88
2022/06/21 03:59:19;;;;;;;;;7.75;6.25;;;;;20.86;71.56;100862.06;5080165;28;45279;-88
2022/06/21 04:01:51;;;;;;;;;7.75;6.25;;;;;20.85;72.41;100865.56;5080042;27;45368;-86
2022/06/21 04:04:32;;;;;;;;;6.00;6.00;;;;;20.86;72.82;100859.41;5085131;27;45452;-83
2022/06/21 04:07:14;;;;;;;;;10.00;7.00;;;;;20.86;73.33;100864.69;5103499;28;45081;-84
2022/06/21 04:09:59;;;;;;;;;8.25;7.25;;;;;20.86;73.88;100859.41;5095229;27;45228;-88
2022/06/21 04:12:25;;;;;;;;;8.25;7.50;;;;;20.89;74.78;100856.81;5085477;28;44637;-84
2022/06/21 04:14:56;;;;;;;;;8.50;7.00;;;;;20.87;75.65;100850.66;5085563;28;45240;-88
2022/06/21 04:17:37;;;;;;;;;6.75;6.75;;;;;20.85;77.21;100847.13;5083437;28;46638;-87
2022/06/21 04:20:17;;;;;;;;;9.50;8.25;;;;;20.82;78.72;100855.00;5083786;28;45240;-90
2022/06/21 04:22:56;;;;;;;;;9.25;7.25;;;;;20.79;79.80;100839.19;5081937;27;45483;-91
2022/06/21 04:25:33;;;;;;;;;9.25;8.25;;;;;20.83;80.14;100846.25;5086354;27;45220;-89
2022/06/21 04:28:14;;;;;;;;;8.25;8.25;;;;;20.81;80.14;100856.78;5087861;28;45422;-86
2022/06/21 04:31:01;;;;;;;;;9.00;8.75;;;;;20.82;81.60;100826.97;5087972;28;45190;-86
2022/06/21 04:33:44;;;;;;;;;9.00;9.00;;;;;20.82;81.34;100829.59;5084825;28;45298;-88
2022/06/21 04:36:32;;;;;;;;;11.00;8.00;;;;;20.81;82.65;100835.72;5080096;27;45343;-90
2022/06/21 04:39:08;;;;;;;;;7.75;7.50;;;;;20.80;85.36;100830.44;5060920;28;47016;-88
2022/06/21 04:41:48;;;;;;;;;7.75;6.75;;;;;20.82;84.74;100839.22;5079208;28;45326;-87
2022/06/21 04:44:28;;;;;;;;;10.50;10.00;;;;;20.77;84.65;100835.72;5082688;27;45262;-82
2022/06/21 04:47:11;;;;;;;;;12.00;8.75;;;;;20.71;85.00;100824.25;5088388;28;45403;-89
2022/06/21 04:50:02;;;;;;;;;10.00;7.50;;;;;20.68;84.82;100818.97;5097768;28;46097;-84
2022/06/21 04:52:31;;;;;;;;;11.50;9.00;;;;;20.62;84.93;100812.84;5076176;28;45499;-90
2022/06/21 04:54:58;;;;;;;;;9.50;8.75;;;;;20.56;86.08;100818.97;5086720;28;45339;-88
2022/06/21 04:57:27;;;;;;;;;11.00;9.50;;;;;20.53;85.48;100809.28;5081889;28;45465;-89
2022/06/21 05:00:03;;;;;;;;;10.00;8.75;;;;;20.55;85.38;100814.56;5062443;28;45400;-86
2022/06/21 05:02:38;;;;;;;;;16.00;9.75;;;;;20.50;85.89;100814.56;5079747;28;45885;-87
2022/06/21 05:05:15;;;;;;;;;10.25;8.75;;;;;20.41;86.46;100807.50;5079608;27;45241;-88
2022/06/21 05:08:07;;;;;;;;;8.00;7.00;;;;;20.48;85.64;100820.66;5080385;28;45197;-88
2022/06/21 05:10:36;;;;;;;;;10.50;9.25;;;;;20.44;87.10;100821.53;5068473;27;46843;-89
2022/06/21 05:13:06;;;;;;;;;8.75;8.75;;;;;20.42;86.31;100822.41;5068652;28;45228;-89
2022/06/21 05:15:37;;;;;;;;;12.00;12.00;;;;;20.41;86.03;100835.53;5086398;28;45512;-88
2022/06/21 05:18:14;;;;;;;;;10.50;8.00;;;;;20.41;88.34;100857.47;5082245;28;45323;-90
2022/06/21 05:20:50;;;;;;;;;10.00;9.25;;;;;20.45;87.64;100870.63;5061277;28;46219;-90
2022/06/21 05:23:18;;;;;;;;;11.25;9.50;;;;;20.38;86.44;100878.47;5078288;28;45331;-88
2022/06/21 05:25:45;;;;;;;;;12.00;9.25;;;;;20.40;86.14;100887.25;5075429;28;45398;-79
2022/06/21 05:28:37;;;;;;;;;11.50;10.50;;;;;20.35;85.98;100878.47;5081842;28;45323;-90
2022/06/21 05:31:17;;;;;;;;;11.00;8.50;;;;;20.30;86.86;100876.69;5082285;28;45312;-90
2022/06/21 05:34:18;;;;;;;;;11.50;10.00;;;;;20.31;87.52;100866.19;5076373;28;46373;-86
2022/06/21 05:37:12;;;;;;;;;13.00;11.00;;;;;20.43;85.87;100875.88;5075811;28;45529;-79
2022/06/21 05:39:45;;;;;;;;;9.50;8.25;;;;;20.50;86.11;100882.94;5075614;28;45471;-87
2022/06/21 05:42:20;;;;;;;;;18.00;16.00;;;;;20.54;85.01;100887.31;5075454;28;46291;-83
2022/06/21 05:44:52;;;;;;;;;14.00;10.25;;;;;20.59;84.17;100883.84;5071898;28;45938;-80
2022/06/21 05:47:26;;;;;;;;;10.75;9.50;;;;;20.53;84.19;100868.91;5066908;28;45552;-87
2022/06/21 05:49:53;;;;;;;;;13.75;12.00;;;;;20.64;84.58;100868.94;5056364;28;45486;-85
2022/06/21 05:52:26;;;;;;;;;10.75;10.00;;;;;20.67;84.39;100872.50;5089972;27;46668;-81
2022/06/21 05:55:18;;;;;;;;;10.25;8.00;;;;;20.79;83.92;100884.84;5102294;27;45423;-94
2022/06/21 05:57:49;;;;;;;;;13.50;11.25;;;;;20.80;83.46;100878.69;5066342;28;45374;-82
2022/06/21 06:00:33;;;;;;;;;10.00;9.50;;;;;20.81;83.75;100876.94;5063444;28;46501;-88
2022/06/21 06:03:07;;;;;;;;;9.75;9.25;;;;;20.78;84.91;100851.50;5087707;27;46480;-82
2022/06/21 06:05:35;;;;;;;;;12.75;11.00;;;;;20.73;85.44;100851.44;5083580;27;45757;-79
2022/06/21 06:08:16;;;;;;;;;11.50;10.00;;;;;20.75;84.80;100859.38;5091241;27;45429;-82
2022/06/21 06:10:44;;;;;;;;;11.00;9.25;;;;;20.72;85.42;100851.47;5101321;27;45503;-82
2022/06/21 06:13:23;;;;;;;;;10.50;10.50;;;;;20.80;84.81;100873.44;5097982;27;45369;-84
2022/06/21 06:15:55;;;;;;;;;11.25;10.75;;;;;20.78;84.93;100864.66;5099654;27;45239;-88
2022/06/21 06:18:29;;;;;;;;;11.50;11.50;;;;;20.66;84.78;100846.16;5086244;27;45444;-90
2022/06/21 06:21:01;;;;;;;;;11.50;10.75;;;;;20.78;84.05;100856.75;5078875;27;45684;-89
2022/06/21 06:23:49;;;;;;;;;10.50;10.50;;;;;20.87;84.22;100850.66;5084272;27;45445;-86
2022/06/21 06:26:23;;;;;;;;;11.00;10.00;;;;;20.92;84.14;100833.09;5074181;27;45455;-84
2022/06/21 06:29:01;;;;;;;;;11.75;11.50;;;;;20.79;83.31;100792.75;5075275;28;45421;-82
2022/06/21 06:31:41;;;;;;;;;10.50;8.00;;;;;21.10;82.64;100826.16;5062368;28;45494;-80
2022/06/21 06:34:12;;;;;;;;;11.75;11.75;;;;;21.09;81.74;100827.00;5076881;27;45253;-83
2022/06/21 06:36:43;;;;;;;;;12.00;11.25;;;;;21.13;80.99;100840.19;5079744;27;45273;-83
2022/06/21 06:39:30;;;;;;;;;16.25;12.50;;;;;21.14;81.98;100844.56;5087322;27;45379;-83
2022/06/21 06:42:05;;;;;;;;;14.50;12.50;;;;;21.11;80.54;100847.19;5083750;27;45460;-82
2022/06/21 06:44:37;;;;;;;;;10.50;10.50;;;;;21.01;80.62;100841.03;5059785;28;47118;-81
2022/06/21 06:47:03;;;;;;;;;12.25;11.75;;;;;;;;5068441;27;45904;-82
2022/06/21 06:49:46;;;;;;;;;12.00;11.00;;;;;20.97;81.18;100868.22;5081111;27;45552;-84
2022/06/21 06:52:19;;;;;;;;;11.75;11.75;;;;;20.95;80.82;100879.63;5078915;28;45396;-84
2022/06/21 06:55:11;;;;;;;;;11.00;10.75;;;;;20.94;81.24;100891.03;5076734;27;46067;-82
2022/06/21 06:57:46;;;;;;;;;11.50;11.50;;;;;20.84;82.21;100874.31;5076734;28;45857;-84
2022/06/21 07:00:24;;;;;;;;;14.75;11.50;;;;;20.91;82.99;100883.13;5077191;28;45394;-83
2022/06/21 07:02:56;;;;;;;;;14.50;13.25;;;;;20.91;83.65;100891.88;5076850;27;45367;-83
2022/06/21 07:05:44;;;;;;;;;11.75;11.75;;;;;20.93;83.07;100895.41;5078222;28;45947;-84
2022/06/21 07:08:22;;;;;;;;;14.75;12.00;;;;;20.95;82.36;100890.16;5069048;28;45850;-84
2022/06/21 07:10:51;;;;;;;;;12.00;11.00;;;;;20.92;82.67;100893.63;5058947;28;45271;-83
2022/06/21 07:13:16;;;;;;;;;13.75;13.00;;;;;20.92;83.13;100885.75;5079914;28;45582;-79
2022/06/21 07:15:46;;;;;;;;;14.75;13.25;;;;;20.97;83.09;100899.81;5079485;28;45391;-80
2022/06/21 07:18:16;;;;;;;;;16.00;14.00;;;;;21.01;83.33;100900.69;5086404;28;45195;-81
2022/06/21 07:20:44;;;;;;;;;13.50;13.50;;;;;21.01;82.35;100913.84;5080411;27;45441;-79
2022/06/21 07:23:16;;;;;;;;;15.25;12.50;;;;;21.02;82.50;100905.09;5078203;28;45255;-84
2022/06/21 07:25:58;;;;;;;;;14.00;12.25;;;;;21.09;83.04;100919.16;5077290;28;45442;-77
2022/06/21 07:28:42;;;;;;;;;15.00;14.00;;;;;21.16;83.23;100923.56;5083158;28;45873;-84
2022/06/21 07:31:17;;;;;;;;;13.00;13.00;;;;;21.22;83.05;100914.78;5081704;28;45264;-84
2022/06/21 07:33:49;;;;;;;;;11.75;11.75;;;;;21.32;82.54;100917.47;5081607;27;45508;-82
2022/06/21 07:36:24;;;;;;;;;16.25;15.25;;;;;21.30;82.42;100906.03;5080449;28;46387;-82
2022/06/21 07:38:50;;;;;;;;;14.50;14.50;;;;;21.42;82.87;100920.09;5079728;27;45791;-83
2022/06/21 07:41:20;;;;;;;;;17.25;15.75;;;;;21.44;81.67;100913.97;5079988;28;45396;-83
2022/06/21 07:43:51;;;;;;;;;16.50;14.75;;;;;21.45;82.61;100906.91;5080312;28;45533;-81
2022/06/21 07:46:42;;;;;;;;;15.00;13.75;;;;;21.44;82.52;100900.78;5062511;28;47026;-81
2022/06/21 07:49:18;;;;;;;;;17.50;15.50;;;;;21.52;82.98;100898.16;5082378;27;45428;-80
2022/06/21 07:51:52;;;;;;;;;15.00;14.25;;;;;21.62;82.98;100906.97;5082041;27;45230;-79
2022/06/21 07:54:39;;;;;;;;;14.25;14.00;;;;;21.77;82.16;100920.16;5081711;27;45329;-85
2022/06/21 07:57:16;;;;;;;;;13.25;12.00;;;;;21.95;81.10;100923.66;5081941;28;45662;-82
2022/06/21 07:59:53;;;;;;;;;16.50;12.25;;;;;22.19;80.18;100927.16;5079219;28;45457;-83
2022/06/21 08:08:36;;;;;;;;;13.00;12.00;;;;;22.61;77.24;100908.63;5078570;28;45509;-83
2022/06/21 08:11:12;;;;;;;;;13.00;12.00;;;;;22.75;77.05;100917.34;5078866;28;45822;-82
2022/06/21 08:13:40;;;;;;;;;13.75;13.75;;;;;22.70;76.64;100900.69;5082467;28;45207;-82
2022/06/21 08:16:15;;;;;;;;;15.75;14.75;;;;;22.75;76.37;100908.56;5087795;27;45585;-81
2022/06/21 08:18:53;;;;;;;;;14.25;13.25;;;;;22.66;76.91;100907.75;5088345;28;46489;-79
2022/06/21 08:21:23;;;;;;;;;17.00;13.75;;;;;22.68;77.79;100926.19;5086751;28;45300;-80
2022/06/21 08:24:01;;;;;;;;;16.25;16.25;;;;;22.80;78.02;100928.78;5086608;28;45280;-81
2022/06/21 08:26:54;;;;;;;;;17.00;14.00;;;;;22.86;77.42;100918.19;5083071;27;45433;-81
2022/06/21 08:29:28;;;;;;;;;13.00;12.50;;;;;22.99;77.24;100931.34;5081271;27;45524;-83
2022/06/21 08:32:04;;;;;;;;;15.25;14.00;;;;;23.13;77.10;100929.53;5080978;27;45464;-84
2022/06/21 08:34:42;;;;;;;;;13.50;12.75;;;;;23.28;76.10;100932.97;5062246;28;45414;-83
2022/06/21 08:37:24;;;;;;;;;16.50;14.00;;;;;23.32;75.38;100929.44;5079388;27;45313;-81
2022/06/21 08:40:13;;;;;;;;;13.75;13.75;;;;;23.45;74.70;100949.63;5079429;28;45299;-79
2022/06/21 08:43:09;;;;;;;;;15.75;14.00;;;;;23.57;74.36;100935.44;5079614;28;45251;-82
2022/06/21 08:46:05;;;;;;;;;16.50;16.50;;;;;23.69;72.91;100936.22;5078303;28;45364;-80
2022/06/21 08:48:59;;;;;;;;;16.75;14.75;;;;;23.65;73.25;100938.88;5060088;28;45316;-81
2022/06/21 08:51:46;;;;;;;;;16.25;14.25;;;;;23.71;73.51;100935.31;5079444;28;45364;-80
2022/06/21 08:54:48;;;;;;;;;17.75;14.75;;;;;23.79;73.13;100924.69;5079918;27;45129;-80
2022/06/21 08:57:17;;;;;;;;;15.00;13.00;;;;;23.77;72.92;100921.16;5063947;28;45369;-81
2022/06/21 08:59:56;;;;;;;;;21.00;16.00;;;;;23.76;73.77;100930.00;5083206;28;45310;-83
2022/06/21 09:02:25;;;;;;;;;16.25;16.25;;;;;23.78;73.64;100923.81;5061281;28;47126;-83
2022/06/21 09:05:22;;;;;;;;;16.25;16.25;;;;;23.81;73.47;100914.97;5078714;27;45204;-83
2022/06/21 09:08:03;;;;;;;;;15.25;13.50;;;;;23.86;74.09;100909.66;5067082;28;45299;-80
2022/06/21 09:10:38;;;;;;;;;17.00;17.00;;;;;23.92;73.77;100909.59;5086897;28;45180;-82
2022/06/21 09:13:43;;;;;;;;;17.25;14.25;;;;;23.96;73.59;100914.00;5082090;27;46050;-81
2022/06/21 09:16:17;;;;;;;;;22.00;19.00;;;;;24.03;73.52;100920.97;5026104;28;45932;-81
2022/06/21 09:19:08;;;;;;;;;18.25;16.00;;;;;24.04;72.64;100920.09;5078813;27;45401;-83
2022/06/21 09:21:56;;;;;;;;;16.25;16.25;;;;;24.07;73.09;100927.13;5078314;27;45421;-83
2022/06/21 09:24:37;;;;;;;;;18.00;16.50;;;;;24.13;72.17;100929.72;5077810;28;46674;-83
2022/06/21 09:27:24;;;;;;;;;14.00;14.00;;;;;24.02;72.91;100918.34;5077764;27;45777;-83
2022/06/21 09:30:16;;;;;;;;;18.75;17.50;;;;;24.10;72.82;100920.03;5078004;28;45362;-82
2022/06/21 09:32:49;;;;;;;;;17.25;15.00;;;;;24.15;72.78;100914.72;5081567;27;45246;-83
2022/06/21 09:35:40;;;;;;;;;15.50;15.00;;;;;24.19;72.96;100929.63;5080451;28;45254;-82
2022/06/21 09:38:32;;;;;;;;;19.75;15.75;;;;;24.10;73.14;100925.34;5080265;28;45858;-82
2022/06/21 09:41:39;;;;;;;;;14.75;14.50;;;;;24.08;73.61;100929.75;5078221;28;45335;-81
2022/06/21 09:44:40;;;;;;;;;18.50;17.75;;;;;24.17;73.68;100926.16;5069490;28;45620;-78
2022/06/21 09:47:21;;;;;;;;;17.75;17.75;;;;;24.27;72.96;100917.22;5077499;28;45527;-78
2022/06/21 09:49:59;;;;;;;;;12.25;12.25;;;;;24.30;72.39;100911.03;5077414;28;45854;-81
2022/06/21 09:52:46;;;;;;;;;18.25;17.25;;;;;24.21;72.48;100905.81;5078538;28;45279;-83
2022/06/21 09:55:59;;;;;;;;;19.25;16.50;;;;;24.10;73.56;100912.09;5060552;28;45442;-81
2022/06/21 09:58:37;;;;;;;;;19.75;18.00;;;;;24.09;74.42;100906.81;5023788;28;47785;-82
2022/06/21 10:01:25;;;;;;;;;17.75;16.75;;;;;24.16;74.21;100910.28;5085562;28;45235;-81
2022/06/21 10:04:06;;;;;;;;;15.25;15.25;;;;;24.22;74.13;100907.59;5082817;27;45496;-82
2022/06/21 10:07:10;;;;;;;;;19.00;18.00;;;;;24.23;74.42;100902.28;5080788;27;45388;-83
2022/06/21 10:10:04;;;;;;;;;18.00;18.00;;;;;24.16;73.40;100899.69;5064413;28;48038;-82
2022/06/21 10:13:04;;;;;;;;;23.25;21.00;;;;;24.03;74.17;100886.59;5077338;27;45244;-82
2022/06/21 10:15:39;;;;;;;;;17.00;16.25;;;;;23.97;75.71;100880.50;5077537;27;45408;-81
2022/06/21 10:18:34;;;;;;;;;18.00;16.50;;;;;23.97;76.60;100891.94;5077450;27;45379;-81
2022/06/21 10:21:26;;;;;;;;;19.75;18.50;;;;;23.89;76.17;100889.34;5080206;27;45465;-81
2022/06/21 10:23:54;;;;;;;;;18.50;16.75;;;;;23.83;76.59;100888.50;5083324;28;45311;-81
2022/06/21 10:26:28;;;;;;;;;20.50;18.00;;;;;23.77;77.30;100879.75;5059047;28;45335;-81
2022/06/21 10:28:56;;;;;;;;;19.50;18.75;;;;;23.71;77.58;100885.09;5077035;27;45312;-81
2022/06/21 10:31:21;;;;;;;;;20.50;18.25;;;;;23.68;78.27;100873.66;5075953;27;45374;-79
2022/06/21 10:33:59;;;;;;;;;21.00;19.50;;;;;23.65;79.17;100875.44;5077478;27;45406;-82
2022/06/21 10:36:32;;;;;;;;;20.25;19.50;;;;;23.63;78.89;100863.13;5073837;27;45274;-80
2022/06/21 10:39:00;;;;;;;;;16.50;15.25;;;;;23.57;79.46;100860.56;5089468;27;45504;-82
2022/06/21 10:42:46;;;;;;;;;16.75;15.25;;;;;23.53;80.12;100849.16;5077981;28;45478;-81
2022/06/21 10:45:02;;;;;;;;;18.50;15.50;;;;;23.58;80.87;100854.38;5081497;28;45796;-80
2022/06/21 10:47:31;;;;;;;;;14.25;13.00;;;;;23.60;81.67;100847.28;5091046;27;45557;-87
2022/06/21 10:50:21;;;;;;;;;15.25;15.25;;;;;23.61;81.88;100838.47;5087685;28;45589;-88
2022/06/21 10:52:53;;;;;;;;;14.75;13.50;;;;;23.67;81.34;100846.38;5086894;28;46744;-89
2022/06/21 10:55:40;;;;;;;;;18.25;15.75;;;;;23.72;81.41;100847.19;5084441;28;45625;-81
2022/06/21 10:58:35;;;;;;;;;18.75;16.75;;;;;23.75;81.14;100849.81;5083112;28;45226;-85
2022/06/21 11:01:21;;;;;;;;;16.75;16.00;;;;;23.79;81.52;100848.00;5086130;28;45482;-85
2022/06/21 11:03:59;;;;;;;;;16.50;14.50;;;;;23.79;81.15;100829.50;5078535;28;46940;-83
2022/06/21 11:07:06;;;;;;;;;17.00;15.00;;;;;23.79;81.33;100829.50;5080979;28;45370;-84
2022/06/21 11:09:49;;;;;;;;;17.00;16.00;;;;;23.80;80.86;100833.91;5051082;27;45533;-87
2022/06/21 11:15:21;;;;;;;;;17.00;15.00;;;;;23.76;81.52;100816.31;5099442;27;45235;-87
2022/06/21 11:18:17;;;;;;;;;14.50;14.25;;;;;23.85;81.41;100831.22;5088459;27;45323;-90
2022/06/21 11:20:58;;;;;;;;;14.50;12.25;;;;;23.89;81.87;100825.03;5086455;27;45282;-88
2022/06/21 11:24:06;;;;;;;;;17.25;15.75;;;;;23.94;81.75;100826.72;5066376;27;45397;-84
2022/06/21 11:26:54;;;;;;;;;16.25;15.00;;;;;23.99;82.03;100818.78;5033600;28;47785;-80
2022/06/21 11:29:54;;;;;;;;;16.25;16.00;;;;;24.07;82.48;100826.63;5069663;28;45772;-79
2022/06/21 11:32:33;;;;;;;;;13.75;11.50;;;;;24.06;82.85;100815.16;5028071;28;45449;-80
2022/06/21 11:35:15;;;;;;;;;16.25;15.00;;;;;24.19;83.39;100823.81;5078975;28;45371;-82
2022/06/21 11:38:13;;;;;;;;;14.25;13.00;;;;;24.27;81.58;100826.38;5083504;27;45406;-80
2022/06/21 11:44:22;;;;;;;;;19.00;17.75;;;;;24.36;81.73;100812.16;5051601;28;45532;-75
2022/06/21 11:47:11;;;;;;;;;13.50;13.00;;;;;24.43;82.17;100808.53;5067163;28;45435;-81
2022/06/21 11:49:50;;;;;;;;;13.50;13.50;;;;;24.59;82.39;100814.50;5096914;27;46051;-79
2022/06/21 11:52:47;;;;;;;;;12.25;12.25;;;;;24.71;81.43;100816.16;5079399;27;45337;-79
2022/06/21 11:55:31;;;;;;;;;15.00;14.50;;;;;24.80;80.67;100815.13;5079935;27;45541;-78
2022/06/21 11:58:31;;;;;;;;;17.00;17.00;;;;;24.88;80.44;100803.53;5087583;27;45437;-81
2022/06/21 12:01:14;;;;;;;;;14.75;14.25;;;;;25.00;79.45;100812.19;5087498;27;45506;-77
2022/06/21 12:04:05;;;;;;;;;17.00;16.75;;;;;25.02;79.62;100816.56;5074452;27;45785;-78
2022/06/21 12:06:52;;;;;;;;;18.25;15.00;;;;;25.01;79.27;100817.47;5091646;27;45569;-77
2022/06/21 12:09:58;;;;;;;;;15.50;13.75;;;;;25.12;79.31;100816.41;5071809;27;45446;-78
2022/06/21 12:13:01;;;;;;;;;13.50;12.25;;;;;25.34;78.59;100816.97;5069010;28;46116;-77
2022/06/21 12:15:44;;;;;;;;;15.75;15.25;;;;;25.54;77.30;100811.34;5085194;27;45359;-78
2022/06/21 12:18:40;;;;;;;;;14.00;14.00;;;;;25.67;77.27;100801.41;5086165;27;45506;-78
2022/06/21 12:21:13;;;;;;;;;16.00;13.75;;;;;25.89;76.16;100804.53;5094438;27;45476;-78
2022/06/21 12:24:17;;;;;;;;;11.75;11.25;;;;;26.13;74.99;100809.44;5078706;27;45886;-78